createdAt,value
2023-05-12T00:00:55.184Z,0.19
2023-05-12T00:01:54.784Z,0.39
2023-05-12T00:02:54.891Z,0.13
2023-05-12T00:03:54.915Z,0.21
2023-05-12T00:04:54.972Z,0.12
2023-05-12T00:05:54.881Z,0.18
2023-05-12T00:06:54.884Z,0.17
2023-05-12T00:07:54.868Z,0.29
2023-05-12T00:08:54.930Z,0.22
2023-05-12T00:09:54.942Z,0.20
2023-05-12T00:10:54.944Z,0.13
2023-05-12T00:11:54.955Z,0.07
2023-05-12T00:12:55.004Z,0.15
2023-05-12T00:13:55.155Z,0.18
2023-05-12T00:14:55.012Z,0.17
2023-05-12T00:15:55.061Z,0.12
2023-05-12T00:16:55.061Z,0.38
2023-05-12T00:17:55.154Z,0.15
2023-05-12T00:18:55.148Z,0.18
2023-05-12T00:19:55.123Z,0.52
2023-05-12T00:20:55.146Z,0.16
2023-05-12T00:21:55.121Z,0.22
2023-05-12T00:22:55.116Z,0.20
2023-05-12T00:23:55.128Z,0.24
2023-05-12T00:24:55.189Z,0.25
2023-05-12T00:25:55.197Z,0.30
2023-05-12T00:26:55.208Z,0.21
2023-05-12T00:27:55.212Z,0.16
2023-05-12T00:28:55.209Z,0.13
2023-05-12T00:29:55.228Z,0.22
2023-05-12T00:30:55.279Z,0.21
2023-05-12T00:31:55.369Z,0.24
2023-05-12T00:32:55.353Z,0.22
2023-05-12T00:33:55.318Z,0.30
2023-05-12T00:34:55.306Z,0.17
2023-05-12T00:35:55.356Z,0.21
2023-05-12T00:36:55.338Z,0.36
2023-05-12T00:37:55.391Z,0.15
2023-05-12T00:38:55.430Z,0.14
2023-05-12T00:39:55.400Z,0.28
2023-05-12T00:40:55.414Z,0.16
2023-05-12T00:41:55.452Z,0.24
2023-05-12T00:42:55.463Z,0.26
2023-05-12T00:43:55.500Z,0.22
2023-05-12T00:44:55.515Z,0.30
2023-05-12T00:45:55.542Z,0.27
2023-05-12T00:46:55.503Z,0.39
2023-05-12T00:47:55.590Z,0.20
2023-05-12T00:48:55.553Z,0.09
2023-05-12T00:49:55.619Z,0.22
2023-05-12T00:50:55.574Z,0.17
2023-05-12T00:51:55.623Z,0.33
2023-05-12T00:52:55.635Z,0.57
2023-05-12T00:53:55.652Z,0.36
2023-05-12T00:54:55.655Z,0.20
2023-05-12T00:55:55.679Z,0.14
2023-05-12T00:56:55.688Z,0.30
2023-05-12T00:57:55.721Z,0.28
2023-05-12T00:58:55.702Z,0.14
2023-05-12T00:59:55.811Z,0.19
2023-05-12T01:00:55.755Z,0.13
2023-05-12T01:01:55.750Z,0.09
2023-05-12T01:02:55.882Z,0.16
2023-05-12T01:03:55.813Z,0.29
2023-05-12T01:04:55.843Z,0.22
2023-05-12T01:05:55.886Z,0.09
2023-05-12T01:06:55.862Z,0.14
2023-05-12T01:07:55.901Z,0.22
2023-05-12T01:08:55.908Z,0.32
2023-05-12T01:09:55.929Z,0.26
2023-05-12T01:10:55.919Z,0.30
2023-05-12T01:11:55.927Z,0.17
2023-05-12T01:12:55.936Z,0.50
2023-05-12T01:13:55.980Z,0.26
2023-05-12T01:14:56.023Z,0.25
2023-05-12T01:15:56.021Z,0.16
2023-05-12T01:16:56.094Z,0.17
2023-05-12T01:17:56.084Z,0.22
2023-05-12T01:18:56.162Z,0.11
2023-05-12T01:19:56.047Z,0.22
2023-05-12T01:20:56.090Z,0.24
2023-05-12T01:21:56.089Z,0.34
2023-05-12T01:22:56.148Z,0.06
2023-05-12T01:23:56.147Z,0.14
2023-05-12T01:24:56.169Z,0.15
2023-05-12T01:25:56.178Z,0.16
2023-05-12T01:26:56.179Z,0.25
2023-05-12T01:27:56.240Z,0.06
2023-05-12T01:28:56.251Z,0.14
2023-05-12T01:29:56.266Z,0.29
2023-05-12T01:30:56.307Z,0.24
2023-05-12T01:31:56.270Z,0.31
2023-05-12T01:32:56.344Z,0.16
2023-05-12T01:33:56.325Z,0.20
2023-05-12T01:34:56.333Z,0.22
2023-05-12T01:35:56.356Z,0.29
2023-05-12T01:36:56.373Z,0.18
2023-05-12T01:37:56.412Z,0.08
2023-05-12T01:38:56.368Z,0.15
2023-05-12T01:39:56.396Z,0.06
2023-05-12T01:40:56.441Z,0.15
2023-05-12T01:41:56.459Z,0.22
2023-05-12T01:42:56.483Z,0.26
2023-05-12T01:43:56.480Z,0.12
2023-05-12T01:44:56.525Z,0.14
2023-05-12T01:45:56.570Z,0.19
2023-05-12T01:46:56.578Z,0.32
2023-05-12T01:47:56.636Z,0.16
2023-05-12T01:48:56.618Z,0.12
2023-05-12T01:49:56.632Z,0.24
2023-05-12T01:50:56.653Z,0.08
2023-05-12T01:51:56.653Z,0.42
2023-05-12T01:52:56.718Z,0.13
2023-05-12T01:53:56.709Z,0.20
2023-05-12T01:54:56.739Z,0.23
2023-05-12T01:55:56.801Z,0.20
2023-05-12T01:56:56.807Z,0.18
2023-05-12T01:57:56.806Z,0.17
2023-05-12T01:58:56.869Z,0.17
2023-05-12T01:59:56.816Z,0.22
2023-05-12T02:00:56.864Z,0.19
2023-05-12T02:01:56.903Z,0.16
2023-05-12T02:02:57.050Z,0.10
2023-05-12T02:03:56.941Z,0.17
2023-05-12T02:04:56.897Z,0.16
2023-05-12T02:05:56.965Z,0.20
2023-05-12T02:06:56.947Z,0.18
2023-05-12T02:07:57.004Z,0.25
2023-05-12T02:08:57.002Z,0.28
2023-05-12T02:09:57.059Z,0.34
2023-05-12T02:10:57.050Z,0.25
2023-05-12T02:11:57.057Z,0.17
2023-05-12T02:12:57.109Z,0.24
2023-05-12T02:13:57.071Z,0.16
2023-05-12T02:14:57.108Z,0.18
2023-05-12T02:15:57.152Z,0.22
2023-05-12T02:16:57.198Z,0.17
2023-05-12T02:17:57.222Z,0.26
2023-05-12T02:18:57.243Z,0.31
2023-05-12T02:19:57.211Z,0.35
2023-05-12T02:20:57.256Z,0.11
2023-05-12T02:21:57.259Z,0.08
2023-05-12T02:22:57.287Z,0.29
2023-05-12T02:23:57.302Z,0.13
2023-05-12T02:24:57.337Z,0.23
2023-05-12T02:25:57.352Z,0.23
2023-05-12T02:26:57.357Z,0.27
2023-05-12T02:27:57.364Z,0.40
2023-05-12T02:28:57.371Z,0.23
2023-05-12T02:29:57.440Z,0.24
2023-05-12T02:30:57.442Z,0.08
2023-05-12T02:31:57.471Z,0.10
2023-05-12T02:32:57.485Z,0.34
2023-05-12T02:33:57.520Z,0.20
2023-05-12T02:34:57.508Z,0.22
2023-05-12T02:35:57.526Z,0.12
2023-05-12T02:36:57.567Z,0.35
2023-05-12T02:37:57.589Z,0.15
2023-05-12T02:38:57.595Z,0.45
2023-05-12T02:39:57.653Z,0.24
2023-05-12T02:40:57.661Z,0.36
2023-05-12T02:41:57.680Z,0.14
2023-05-12T02:42:57.795Z,0.13
2023-05-12T02:43:57.739Z,0.09
2023-05-12T02:44:57.807Z,0.26
2023-05-12T02:45:57.802Z,0.15
2023-05-12T02:46:57.756Z,0.20
2023-05-12T02:47:57.783Z,0.27
2023-05-12T02:48:57.810Z,0.23
2023-05-12T02:49:57.861Z,0.32
2023-05-12T02:50:57.898Z,0.23
2023-05-12T02:51:57.889Z,0.14
2023-05-12T02:52:57.952Z,0.39
2023-05-12T02:53:57.943Z,0.11
2023-05-12T02:54:57.964Z,0.16
2023-05-12T02:55:57.983Z,0.31
2023-05-12T02:56:58.009Z,0.20
2023-05-12T02:57:58.040Z,0.11
2023-05-12T02:58:58.042Z,0.22
2023-05-12T02:59:58.093Z,0.44
2023-05-12T03:01:09.370Z,0.20
2023-05-12T03:01:59.147Z,0.12
2023-05-12T03:02:58.282Z,0.15
2023-05-12T03:03:58.108Z,0.36
2023-05-12T03:04:58.072Z,0.38
2023-05-12T03:05:58.066Z,0.09
2023-05-12T03:06:58.081Z,0.12
2023-05-12T03:07:58.061Z,0.22
2023-05-12T03:08:58.058Z,0.16
2023-05-12T03:09:58.060Z,0.20
2023-05-12T03:10:58.073Z,0.12
2023-05-12T03:11:58.009Z,0.28
2023-05-12T03:12:58.053Z,0.23
2023-05-12T03:13:58.043Z,0.25
2023-05-12T03:14:58.026Z,0.18
2023-05-12T03:15:58.000Z,0.23
2023-05-12T03:16:58.055Z,0.20
2023-05-12T03:17:58.057Z,0.22
2023-05-12T03:18:58.090Z,0.26
2023-05-12T03:19:58.032Z,0.18
2023-05-12T03:20:58.044Z,0.14
2023-05-12T03:21:58.103Z,0.17
2023-05-12T03:22:58.080Z,0.21
2023-05-12T03:23:58.158Z,0.09
2023-05-12T03:24:58.172Z,0.14
2023-05-12T03:25:58.282Z,0.21
2023-05-12T03:26:58.222Z,0.31
2023-05-12T03:27:58.215Z,0.23
2023-05-12T03:28:58.245Z,0.25
2023-05-12T03:29:58.286Z,0.16
2023-05-12T03:30:58.320Z,0.21
2023-05-12T03:31:58.327Z,0.43
2023-05-12T03:32:58.447Z,0.10
2023-05-12T03:33:58.428Z,0.14
2023-05-12T03:34:58.400Z,0.12
2023-05-12T03:35:58.450Z,0.15
2023-05-12T03:36:58.487Z,0.12
2023-05-12T03:37:58.511Z,0.31
2023-05-12T03:38:58.540Z,0.14
2023-05-12T03:39:58.564Z,0.17
2023-05-12T03:40:58.608Z,0.14
2023-05-12T03:41:58.643Z,0.27
2023-05-12T03:42:58.697Z,0.13
2023-05-12T03:43:58.712Z,0.14
2023-05-12T03:44:58.713Z,0.15
2023-05-12T03:45:58.815Z,0.17
2023-05-12T03:46:58.968Z,0.42
2023-05-12T03:47:58.845Z,0.38
2023-05-12T03:48:58.794Z,0.24
2023-05-12T03:49:58.861Z,0.20
2023-05-12T03:50:58.904Z,0.15
2023-05-12T03:51:58.916Z,0.13
2023-05-12T03:52:58.987Z,0.15
2023-05-12T03:53:59.019Z,0.29
2023-05-12T03:54:59.020Z,0.11
2023-05-12T03:55:59.100Z,0.13
2023-05-12T03:56:59.120Z,0.19
2023-05-12T03:57:59.169Z,0.20
2023-05-12T03:58:59.162Z,0.15
2023-05-12T03:59:59.175Z,0.18
2023-05-12T04:00:59.252Z,0.13
2023-05-12T04:01:59.306Z,0.08
2023-05-12T04:02:59.319Z,0.39
2023-05-12T04:03:59.311Z,0.49
2023-05-12T04:04:59.249Z,0.48
2023-05-12T04:05:59.267Z,0.50
2023-05-12T04:06:59.265Z,0.72
2023-05-12T04:07:59.311Z,0.75
2023-05-12T04:08:59.365Z,0.61
2023-05-12T04:09:59.394Z,0.98
2023-05-12T04:10:59.356Z,0.72
2023-05-12T04:11:59.406Z,0.97
2023-05-12T04:12:59.354Z,0.68
2023-05-12T04:13:59.358Z,1.12
2023-05-12T04:14:59.427Z,1.17
2023-05-12T04:15:59.461Z,1.40
2023-05-12T04:16:59.432Z,1.02
2023-05-12T04:17:59.430Z,0.89
2023-05-12T04:18:59.455Z,0.98
2023-05-12T04:19:59.390Z,1.09
2023-05-12T04:20:59.403Z,1.12
2023-05-12T04:21:59.415Z,1.43
2023-05-12T04:22:59.434Z,1.25
2023-05-12T04:23:59.414Z,1.34
2023-05-12T04:24:59.457Z,1.08
2023-05-12T04:25:59.397Z,1.23
2023-05-12T04:26:59.405Z,1.33
2023-05-12T04:27:59.458Z,1.71
2023-05-12T04:28:59.464Z,1.25
2023-05-12T04:29:59.463Z,1.42
2023-05-12T04:30:59.546Z,1.25
2023-05-12T04:31:59.539Z,1.10
2023-05-12T04:32:59.607Z,1.26
2023-05-12T04:33:59.595Z,1.20
2023-05-12T04:34:59.629Z,1.08
2023-05-12T04:35:59.722Z,1.00
2023-05-12T04:36:59.748Z,1.05
2023-05-12T04:37:59.803Z,0.93
2023-05-12T04:38:59.908Z,1.22
2023-05-12T04:39:59.903Z,0.82
2023-05-12T04:41:00.009Z,1.01
2023-05-12T04:42:00.029Z,0.92
2023-05-12T04:43:00.141Z,0.97
2023-05-12T04:44:00.682Z,0.78
2023-05-12T04:45:00.187Z,0.91
2023-05-12T04:46:00.658Z,0.67
2023-05-12T04:47:00.324Z,1.01
2023-05-12T04:48:00.357Z,1.00
2023-05-12T04:49:00.378Z,1.50
2023-05-12T04:50:00.416Z,0.89
2023-05-12T04:51:00.476Z,0.87
2023-05-12T04:52:00.539Z,0.81
2023-05-12T04:53:00.603Z,1.09
2023-05-12T04:54:00.634Z,0.98
2023-05-12T04:55:00.660Z,0.82
2023-05-12T04:56:00.693Z,0.95
2023-05-12T04:57:00.756Z,0.56
2023-05-12T04:58:00.751Z,1.00
2023-05-12T04:59:00.796Z,1.01
2023-05-12T05:00:00.882Z,0.85
2023-05-12T05:01:00.933Z,0.64
2023-05-12T05:02:00.920Z,0.74
2023-05-12T05:03:01.051Z,0.79
2023-05-12T05:04:01.047Z,0.69
2023-05-12T05:05:01.045Z,0.67
2023-05-12T05:06:01.114Z,0.61
2023-05-12T05:07:01.117Z,0.75
2023-05-12T05:08:01.169Z,0.80
2023-05-12T05:09:01.167Z,0.79
2023-05-12T05:10:01.211Z,0.70
2023-05-12T05:11:01.248Z,0.73
2023-05-12T05:12:01.291Z,0.88
2023-05-12T05:13:01.364Z,0.71
2023-05-12T05:14:01.416Z,0.70
2023-05-12T05:15:01.411Z,0.99
2023-05-12T05:16:01.447Z,1.00
2023-05-12T05:17:01.494Z,0.65
2023-05-12T05:18:02.067Z,0.89
2023-05-12T05:19:05.928Z,0.66
2023-05-12T05:20:07.177Z,0.83
2023-05-12T05:21:02.581Z,0.97
2023-05-12T05:22:01.528Z,0.70
2023-05-12T05:23:01.529Z,0.92
2023-05-12T05:24:01.547Z,0.84
2023-05-12T05:25:01.548Z,0.57
2023-05-12T05:26:01.493Z,0.82
2023-05-12T05:27:01.487Z,0.68
2023-05-12T05:28:01.496Z,0.80
2023-05-12T05:29:01.571Z,0.56
2023-05-12T05:30:01.525Z,0.66
2023-05-12T05:31:01.576Z,0.64
2023-05-12T05:32:02.104Z,0.70
2023-05-12T05:33:01.482Z,0.95
2023-05-12T05:34:01.588Z,0.87
2023-05-12T05:35:01.473Z,0.80
2023-05-12T05:36:01.411Z,0.72
2023-05-12T05:37:01.438Z,0.92
2023-05-12T05:38:01.368Z,2.04
2023-05-12T05:39:01.487Z,2.47
2023-05-12T05:40:01.401Z,2.92
2023-05-12T05:41:01.408Z,3.41
2023-05-12T05:42:01.495Z,3.65
2023-05-12T05:43:01.467Z,4.14
2023-05-12T05:44:01.367Z,4.62
2023-05-12T05:45:01.336Z,3.80
2023-05-12T05:46:01.405Z,4.38
2023-05-12T05:47:01.409Z,4.11
2023-05-12T05:48:01.371Z,3.96
2023-05-12T05:49:01.338Z,3.37
2023-05-12T05:50:01.334Z,2.74
2023-05-12T05:51:01.317Z,3.23
2023-05-12T05:52:01.318Z,2.58
2023-05-12T05:53:01.334Z,2.76
2023-05-12T05:54:01.269Z,2.65
2023-05-12T05:55:01.296Z,2.80
2023-05-12T05:56:02.054Z,2.92
2023-05-12T05:57:01.395Z,2.49
2023-05-12T05:58:01.570Z,1.87
2023-05-12T05:59:01.514Z,2.46
2023-05-12T06:00:01.605Z,2.10
2023-05-12T06:01:01.640Z,1.83
2023-05-12T06:02:01.865Z,2.03
2023-05-12T06:03:01.809Z,2.09
2023-05-12T06:04:02.016Z,2.33
2023-05-12T06:05:01.836Z,2.23
2023-05-12T06:06:02.065Z,2.34
2023-05-12T06:07:02.025Z,2.20
2023-05-12T06:08:02.032Z,2.21
2023-05-12T06:09:02.068Z,1.59
2023-05-12T06:10:02.230Z,2.14
2023-05-12T06:11:02.232Z,2.17
2023-05-12T06:12:02.265Z,1.94
2023-05-12T06:13:02.286Z,1.81
2023-05-12T06:14:02.324Z,1.80
2023-05-12T06:15:02.389Z,1.78
2023-05-12T06:16:02.463Z,1.80
2023-05-12T06:17:02.510Z,1.91
2023-05-12T06:18:02.478Z,1.78
2023-05-12T06:19:02.576Z,1.53
2023-05-12T06:20:02.534Z,1.62
2023-05-12T06:21:02.543Z,1.60
2023-05-12T06:22:02.569Z,1.51
2023-05-12T06:23:02.612Z,1.49
2023-05-12T06:24:02.592Z,1.76
2023-05-12T06:25:02.615Z,1.75
2023-05-12T06:26:02.595Z,1.41
2023-05-12T06:27:02.603Z,1.67
2023-05-12T06:28:02.649Z,1.24
2023-05-12T06:29:02.703Z,1.49
2023-05-12T06:30:02.761Z,1.37
2023-05-12T06:31:02.818Z,1.53
2023-05-12T06:32:02.832Z,2.91
2023-05-12T06:33:02.875Z,5.63
2023-05-12T06:34:02.845Z,4.47
2023-05-12T06:35:02.909Z,3.32
2023-05-12T06:36:02.894Z,3.08
2023-05-12T06:37:02.879Z,4.09
2023-05-12T06:38:02.922Z,3.27
2023-05-12T06:39:02.928Z,2.56
2023-05-12T06:40:02.925Z,2.33
2023-05-12T06:41:02.982Z,1.50
2023-05-12T06:42:03.021Z,2.14
2023-05-12T06:43:03.182Z,2.32
2023-05-12T06:44:03.123Z,2.05
2023-05-12T06:45:03.242Z,2.02
2023-05-12T06:46:03.343Z,2.24
2023-05-12T06:47:03.350Z,2.27
2023-05-12T06:48:03.437Z,1.40
2023-05-12T06:49:03.378Z,1.53
2023-05-12T06:50:03.402Z,1.80
2023-05-12T06:51:03.413Z,1.46
2023-05-12T06:52:03.506Z,1.27
2023-05-12T06:53:03.482Z,1.61
2023-05-12T06:54:03.507Z,1.51
2023-05-12T06:55:03.531Z,1.65
2023-05-12T06:56:03.546Z,1.68
2023-05-12T06:57:03.617Z,1.55
2023-05-12T06:58:04.027Z,1.56
2023-05-12T06:59:03.609Z,1.57
2023-05-12T07:00:03.628Z,1.43
2023-05-12T07:01:03.720Z,0.96
2023-05-12T07:02:03.667Z,1.44
2023-05-12T07:03:03.756Z,1.32
2023-05-12T07:04:03.745Z,1.69
2023-05-12T07:05:03.670Z,1.43
2023-05-12T07:06:03.773Z,1.27
2023-05-12T07:07:03.685Z,1.31
2023-05-12T07:08:03.687Z,1.06
2023-05-12T07:09:03.706Z,0.90
2023-05-12T07:10:03.691Z,1.65
2023-05-12T07:11:03.742Z,1.18
2023-05-12T07:12:03.734Z,1.60
2023-05-12T07:13:03.751Z,1.20
2023-05-12T07:14:03.764Z,1.19
2023-05-12T07:15:03.775Z,1.03
2023-05-12T07:16:03.799Z,1.17
2023-05-12T07:17:03.798Z,1.40
2023-05-12T07:18:03.851Z,1.24
2023-05-12T07:19:03.847Z,0.86
2023-05-12T07:20:03.787Z,1.41
2023-05-12T07:21:03.886Z,1.31
2023-05-12T07:22:03.859Z,1.55
2023-05-12T07:23:03.905Z,1.63
2023-05-12T07:24:03.998Z,1.06
2023-05-12T07:25:04.048Z,1.18
2023-05-12T07:26:04.108Z,1.00
2023-05-12T07:27:04.150Z,1.44
2023-05-12T07:28:04.193Z,1.10
2023-05-12T07:29:04.282Z,1.18
2023-05-12T07:30:04.330Z,1.00
2023-05-12T07:31:04.483Z,1.39
2023-05-12T07:32:04.467Z,1.57
2023-05-12T07:33:04.534Z,1.09
2023-05-12T07:34:04.523Z,1.33
2023-05-12T07:35:04.624Z,1.34
2023-05-12T07:36:04.703Z,1.44
2023-05-12T07:37:04.713Z,1.74
2023-05-12T07:38:04.741Z,1.44
2023-05-12T07:39:04.789Z,1.48
2023-05-12T07:40:04.879Z,1.42
2023-05-12T07:41:04.958Z,0.99
2023-05-12T07:42:05.017Z,1.33
2023-05-12T07:43:05.060Z,1.09
2023-05-12T07:44:05.081Z,0.84
2023-05-12T07:45:05.099Z,1.11
2023-05-12T07:46:05.119Z,0.99
2023-05-12T07:47:05.235Z,0.86
2023-05-12T07:48:05.277Z,1.05
2023-05-12T07:49:05.252Z,0.90
2023-05-12T07:50:05.288Z,1.03
2023-05-12T07:51:05.282Z,0.90
2023-05-12T07:52:05.326Z,0.83
2023-05-12T07:53:05.367Z,0.66
2023-05-12T07:54:05.348Z,0.78
2023-05-12T07:55:05.386Z,0.69
2023-05-12T07:56:05.396Z,0.69
2023-05-12T07:57:05.486Z,0.71
2023-05-12T07:58:05.586Z,0.78
2023-05-12T07:59:05.598Z,0.79
2023-05-12T08:00:05.659Z,0.68
2023-05-12T08:01:05.694Z,0.80
2023-05-12T08:02:05.808Z,0.59
2023-05-12T08:03:05.896Z,0.68
2023-05-12T08:04:05.899Z,0.72
2023-05-12T08:05:05.838Z,0.52
2023-05-12T08:06:05.879Z,0.82
2023-05-12T08:07:05.968Z,0.45
2023-05-12T08:08:05.992Z,0.67
2023-05-12T08:09:06.076Z,0.43
2023-05-12T08:10:06.148Z,0.56
2023-05-12T08:11:06.178Z,0.65
2023-05-12T08:12:06.272Z,0.62
2023-05-12T08:13:06.371Z,0.67
2023-05-12T08:14:06.343Z,0.82
2023-05-12T08:15:06.419Z,0.67
2023-05-12T08:16:06.421Z,0.48
2023-05-12T08:17:06.434Z,0.76
2023-05-12T08:18:06.477Z,0.60
2023-05-12T08:19:06.518Z,0.46
2023-05-12T08:20:06.555Z,0.55
2023-05-12T08:21:06.514Z,0.38
2023-05-12T08:22:06.532Z,0.47
2023-05-12T08:23:06.541Z,0.53
2023-05-12T08:24:06.578Z,0.60
2023-05-12T08:25:06.624Z,0.77
2023-05-12T08:26:06.680Z,0.70
2023-05-12T08:27:06.692Z,0.64
2023-05-12T08:28:06.736Z,1.21
2023-05-12T08:29:06.737Z,1.14
2023-05-12T08:30:06.753Z,1.10
2023-05-12T08:31:06.850Z,1.60
2023-05-12T08:32:06.882Z,1.52
2023-05-12T08:33:07.009Z,1.83
2023-05-12T08:34:10.362Z,1.50
2023-05-12T08:35:06.885Z,1.66
2023-05-12T08:36:06.882Z,1.80
2023-05-12T08:37:06.932Z,1.48
2023-05-12T08:38:06.911Z,1.82
2023-05-12T08:39:06.978Z,1.69
2023-05-12T08:40:06.877Z,1.23
2023-05-12T08:41:06.883Z,1.07
2023-05-12T08:42:06.864Z,0.89
2023-05-12T08:43:06.841Z,1.00
2023-05-12T08:44:06.920Z,1.51
2023-05-12T08:45:06.824Z,1.36
2023-05-12T08:46:06.868Z,1.10
2023-05-12T08:47:07.001Z,0.98
2023-05-12T08:48:06.875Z,1.10
2023-05-12T08:49:06.798Z,1.45
2023-05-12T08:50:06.810Z,0.98
2023-05-12T08:51:06.832Z,1.04
2023-05-12T08:52:06.800Z,0.98
2023-05-12T08:53:06.781Z,0.76
2023-05-12T08:54:06.813Z,0.86
2023-05-12T08:55:06.749Z,1.09
2023-05-12T08:57:10.346Z,1.05
2023-05-12T08:58:09.027Z,0.95
2023-05-12T08:59:06.727Z,1.37
2023-05-12T09:00:06.770Z,1.22
2023-05-12T09:01:06.733Z,1.07
2023-05-12T09:02:06.793Z,1.30
2023-05-12T09:03:06.758Z,1.32
2023-05-12T09:04:06.738Z,1.04
2023-05-12T09:05:06.712Z,0.91
2023-05-12T09:06:06.778Z,0.87
2023-05-12T09:07:06.725Z,0.93
2023-05-12T09:08:06.671Z,0.71
2023-05-12T09:09:06.708Z,0.70
2023-05-12T09:10:06.678Z,0.74
2023-05-12T09:11:06.775Z,1.42
2023-05-12T09:12:06.700Z,0.89
2023-05-12T09:13:06.687Z,1.26
2023-05-12T09:14:06.639Z,1.10
2023-05-12T09:15:06.643Z,0.68
2023-05-12T09:16:06.657Z,0.78
2023-05-12T09:17:06.634Z,0.87
2023-05-12T09:18:06.684Z,1.52
2023-05-12T09:19:07.168Z,0.85
2023-05-12T09:20:06.635Z,0.93
2023-05-12T09:21:06.585Z,0.80
2023-05-12T09:22:06.615Z,1.08
2023-05-12T09:23:06.652Z,1.14
2023-05-12T09:24:06.716Z,0.91
2023-05-12T09:25:06.583Z,1.11
2023-05-12T09:26:06.598Z,0.85
2023-05-12T09:27:06.612Z,1.03
2023-05-12T09:28:06.563Z,0.82
2023-05-12T09:29:06.645Z,1.27
2023-05-12T09:30:06.615Z,1.08
2023-05-12T09:31:06.689Z,1.24
2023-05-12T09:32:06.651Z,1.20
2023-05-12T09:33:06.619Z,1.10
2023-05-12T09:34:06.512Z,0.78
2023-05-12T09:35:06.523Z,1.00
2023-05-12T09:36:06.520Z,1.14
2023-05-12T09:37:06.652Z,0.91
2023-05-12T09:38:06.492Z,1.06
2023-05-12T09:39:06.512Z,0.97
2023-05-12T09:40:06.497Z,1.20
2023-05-12T09:41:06.492Z,0.86
2023-05-12T09:42:06.507Z,1.04
2023-05-12T09:43:06.455Z,1.32
2023-05-12T09:44:06.490Z,0.81
2023-05-12T09:45:06.452Z,0.68
2023-05-12T09:46:06.487Z,0.87
2023-05-12T09:47:06.428Z,0.73
2023-05-12T09:48:06.487Z,0.62
2023-05-12T09:49:06.461Z,0.78
2023-05-12T09:50:06.407Z,0.73
2023-05-12T09:51:06.425Z,0.66
2023-05-12T09:52:06.425Z,0.68
2023-05-12T09:53:06.433Z,0.60
2023-05-12T09:54:07.929Z,0.57
2023-05-12T09:55:06.408Z,0.23
2023-05-12T09:56:06.404Z,0.76
2023-05-12T09:57:06.347Z,0.74
2023-05-12T09:58:06.353Z,0.67
2023-05-12T09:59:06.400Z,0.51
2023-05-12T10:00:16.982Z,0.29
2023-05-12T10:02:07.524Z,0.51
2023-05-12T10:03:06.368Z,0.42
2023-05-12T10:04:06.310Z,0.91
2023-05-12T10:05:06.402Z,0.48
2023-05-12T10:06:07.799Z,0.41
2023-05-12T10:07:06.315Z,0.46
2023-05-12T10:08:06.304Z,0.66
2023-05-12T10:09:06.294Z,0.61
2023-05-12T10:10:06.441Z,0.37
2023-05-12T10:11:06.361Z,0.46
2023-05-12T10:12:06.302Z,0.68
2023-05-12T10:13:06.256Z,0.34
2023-05-12T10:14:06.244Z,0.59
2023-05-12T10:15:06.276Z,0.67
2023-05-12T10:16:06.241Z,0.35
2023-05-12T10:17:06.342Z,0.50
2023-05-12T10:18:06.296Z,0.56
2023-05-12T10:19:06.333Z,0.50
2023-05-12T10:20:06.238Z,0.41
2023-05-12T10:21:06.255Z,0.53
2023-05-12T10:22:06.177Z,0.62
2023-05-12T10:23:06.187Z,0.60
2023-05-12T10:24:06.190Z,0.52
2023-05-12T10:25:06.438Z,0.57
2023-05-12T10:26:06.186Z,0.71
2023-05-12T10:27:06.282Z,0.54
2023-05-12T10:28:06.200Z,0.63
2023-05-12T10:29:06.191Z,0.46
2023-05-12T10:30:06.211Z,0.58
2023-05-12T10:31:06.270Z,0.76
2023-05-12T10:32:06.231Z,0.45
2023-05-12T10:33:06.292Z,0.44
2023-05-12T10:34:06.250Z,0.61
2023-05-12T10:35:06.348Z,0.50
2023-05-12T10:36:06.382Z,0.96
2023-05-12T10:37:06.424Z,0.66
2023-05-12T10:38:06.434Z,0.62
2023-05-12T10:39:06.447Z,0.37
2023-05-12T10:40:06.485Z,0.61
2023-05-12T10:41:06.542Z,0.46
2023-05-12T10:42:06.517Z,0.69
2023-05-12T10:43:06.571Z,0.40
2023-05-12T10:44:06.591Z,0.64
2023-05-12T10:45:06.578Z,0.56
2023-05-12T10:46:07.023Z,0.64
2023-05-12T10:47:06.630Z,0.84
2023-05-12T10:48:06.713Z,0.63
2023-05-12T10:49:06.712Z,0.83
2023-05-12T10:50:06.774Z,0.78
2023-05-12T10:51:06.775Z,0.70
2023-05-12T10:52:06.760Z,0.63
2023-05-12T10:53:08.149Z,0.43
2023-05-12T10:54:06.959Z,0.72
2023-05-12T10:55:06.830Z,0.92
2023-05-12T10:56:06.994Z,0.68
2023-05-12T10:57:07.192Z,0.49
2023-05-12T10:58:07.331Z,0.63
2023-05-12T10:59:07.438Z,0.75
2023-05-12T11:00:07.631Z,0.44
2023-05-12T11:01:07.292Z,0.48
2023-05-12T11:02:08.158Z,0.36
2023-05-12T11:03:11.387Z,0.61
2023-05-12T11:04:07.164Z,0.56
2023-05-12T11:05:07.517Z,1.00
2023-05-12T11:06:07.248Z,0.57
2023-05-12T11:07:08.071Z,1.03
2023-05-12T11:08:07.342Z,0.56
2023-05-12T11:09:07.159Z,0.98
2023-05-12T11:10:08.114Z,0.48
2023-05-12T11:11:07.133Z,0.75
2023-05-12T11:12:08.031Z,0.63
2023-05-12T11:13:06.990Z,0.75
2023-05-12T11:14:07.950Z,0.68
2023-05-12T11:15:07.310Z,0.81
2023-05-12T11:16:07.062Z,0.69
2023-05-12T11:17:06.957Z,0.75
2023-05-12T11:18:06.977Z,0.44
2023-05-12T11:19:07.082Z,0.46
2023-05-12T11:20:06.965Z,0.53
2023-05-12T11:21:07.432Z,0.47
2023-05-12T11:22:07.032Z,0.52
2023-05-12T11:23:07.108Z,0.43
2023-05-12T11:24:07.148Z,0.34
2023-05-12T11:25:07.242Z,0.27
2023-05-12T11:26:07.259Z,0.42
2023-05-12T11:27:07.312Z,0.48
2023-05-12T11:28:07.372Z,0.42
2023-05-12T11:29:07.389Z,0.32
2023-05-12T11:30:07.442Z,0.24
2023-05-12T11:31:07.494Z,0.35
2023-05-12T11:32:07.721Z,0.21
2023-05-12T11:33:07.673Z,0.23
2023-05-12T11:34:12.612Z,0.35
2023-05-12T11:35:08.655Z,0.34
2023-05-12T11:36:07.639Z,0.23
2023-05-12T11:37:07.638Z,0.40
2023-05-12T11:38:07.657Z,0.23
2023-05-12T11:39:07.593Z,0.35
2023-05-12T11:40:07.604Z,0.24
2023-05-12T11:41:07.643Z,0.16
2023-05-12T11:42:12.947Z,0.27
2023-05-12T11:43:08.599Z,0.28
2023-05-12T11:44:07.606Z,0.30
2023-05-12T11:45:07.556Z,0.21
2023-05-12T11:46:07.607Z,0.38
2023-05-12T11:47:07.634Z,0.16
2023-05-12T11:48:07.763Z,0.32
2023-05-12T11:49:07.571Z,0.30
2023-05-12T11:50:07.562Z,0.33
2023-05-12T11:51:07.547Z,0.12
2023-05-12T11:52:07.587Z,0.27
2023-05-12T11:53:07.624Z,0.25
2023-05-12T11:54:07.706Z,0.39
2023-05-12T11:55:07.731Z,0.29
2023-05-12T11:56:07.742Z,0.20
2023-05-12T11:57:07.823Z,0.28
2023-05-12T11:58:07.826Z,0.18
2023-05-12T11:59:07.920Z,0.11
2023-05-12T12:00:07.960Z,0.24
2023-05-12T12:01:07.950Z,0.22
2023-05-12T12:02:08.005Z,0.24
2023-05-12T12:03:08.257Z,0.10
2023-05-12T12:04:08.138Z,0.26
2023-05-12T12:05:09.280Z,0.35
2023-05-12T12:06:08.001Z,0.21
2023-05-12T12:07:08.249Z,0.23
2023-05-12T12:08:08.073Z,0.21
2023-05-12T12:09:08.069Z,0.27
2023-05-12T12:10:08.077Z,0.15
2023-05-12T12:11:08.079Z,0.17
2023-05-12T12:12:08.095Z,0.26
2023-05-12T12:13:08.109Z,0.42
2023-05-12T12:14:08.093Z,0.14
2023-05-12T12:15:08.127Z,0.32
2023-05-12T12:16:08.289Z,0.14
2023-05-12T12:17:08.175Z,0.14
2023-05-12T12:18:08.245Z,0.08
2023-05-12T12:19:08.418Z,0.13
2023-05-12T12:20:08.443Z,0.21
2023-05-12T12:21:08.266Z,0.21
2023-05-12T12:22:08.263Z,0.24
2023-05-12T12:23:08.314Z,0.26
2023-05-12T12:24:08.316Z,0.12
2023-05-12T12:25:08.376Z,0.22
2023-05-12T12:26:08.401Z,0.13
2023-05-12T12:27:08.364Z,0.33
2023-05-12T12:28:08.372Z,0.30
2023-05-12T12:29:08.457Z,0.19
2023-05-12T12:30:08.478Z,0.16
2023-05-12T12:31:08.494Z,0.18
2023-05-12T12:32:08.442Z,0.32
2023-05-12T12:33:08.549Z,0.22
2023-05-12T12:34:08.421Z,0.16
2023-05-12T12:35:08.568Z,0.26
2023-05-12T12:36:08.453Z,0.14
2023-05-12T12:37:08.474Z,0.27
2023-05-12T12:38:08.480Z,0.17
2023-05-12T12:39:08.503Z,0.15
2023-05-12T12:40:08.595Z,0.18
2023-05-12T12:41:08.573Z,0.22
2023-05-12T12:42:08.634Z,0.13
2023-05-12T12:43:08.720Z,0.20
2023-05-12T12:44:08.723Z,0.06
2023-05-12T12:45:08.844Z,0.16
2023-05-12T12:46:08.888Z,0.22
2023-05-12T12:47:08.989Z,0.14
2023-05-12T12:48:09.039Z,0.13
2023-05-12T12:49:09.026Z,0.22
2023-05-12T12:50:09.122Z,0.43
2023-05-12T12:51:09.171Z,0.34
2023-05-12T12:52:09.897Z,0.27
2023-05-12T12:53:09.267Z,0.20
2023-05-12T12:54:09.320Z,0.22
2023-05-12T12:55:09.337Z,0.21
2023-05-12T12:56:09.419Z,0.24
2023-05-12T12:57:09.477Z,0.68
2023-05-12T12:58:09.540Z,0.16
2023-05-12T12:59:09.545Z,0.05
2023-05-12T13:00:09.644Z,0.26
2023-05-12T13:01:09.740Z,0.22
2023-05-12T13:02:09.768Z,0.15
2023-05-12T13:03:09.772Z,0.10
2023-05-12T13:04:09.788Z,0.41
2023-05-12T13:05:09.826Z,0.11
2023-05-12T13:06:09.868Z,0.12
2023-05-12T13:07:09.948Z,0.18
2023-05-12T13:08:10.009Z,0.36
2023-05-12T13:09:10.073Z,0.18
2023-05-12T13:10:10.207Z,0.14
2023-05-12T13:11:10.143Z,0.18
2023-05-12T13:12:10.192Z,0.16
2023-05-12T13:13:10.233Z,0.21
2023-05-12T13:14:10.291Z,0.37
2023-05-12T13:15:10.370Z,0.18
2023-05-12T13:16:10.430Z,0.22
2023-05-12T13:17:10.495Z,0.28
2023-05-12T13:18:10.576Z,0.18
2023-05-12T13:19:10.624Z,0.33
2023-05-12T13:20:10.623Z,0.33
2023-05-12T13:21:10.674Z,0.27